Time;durP1;ratioP1;P1;durP2;ratioP2;P2;SDS_P1;SDS_P2;PMS_P1;PMS_P2;Temp;Humidity;BMP_temperature;BMP_pressure;BME280_temperature;BME280_humidity;BME280_pressure;Samples;Min_cycle;Max_cycle;Signal;HPM_P1;HPM_P2
2022/11/04 00:01:43;;;;;;;5.97;2.50;;;;;;;12.73;53.67;100003.63;7392625;19;19998;-62
2022/11/04 00:04:10;;;;;;;7.55;2.83;;;;;;;12.96;53.04;99992.53;7394326;19;19994;-62
2022/11/04 00:06:37;;;;;;;8.23;2.70;;;;;;;12.87;53.49;99994.78;7391196;19;20107;-62
2022/11/04 00:09:05;;;;;;;5.60;2.45;;;;;;;12.93;53.15;99990.56;7393707;19;20005;-61
2022/11/04 00:14:15;;;;;;;6.68;2.33;;;;;;;13.15;52.73;99988.78;7393623;19;20004;-62
2022/11/04 00:19:25;;;;;;;6.70;2.70;;;;;;;13.06;53.44;99979.31;7394054;19;20006;-62
2022/11/04 00:30:07;;;;;;;8.25;3.10;;;;;;;13.22;52.80;99982.56;7393047;19;20006;-63
2022/11/04 00:35:17;;;;;;;10.45;3.13;;;;;;;13.17;52.94;99938.31;7393386;19;20374;-62
2022/11/04 00:37:44;;;;;;;7.65;3.10;;;;;;;13.16;52.78;99940.28;7390673;19;20339;-63
2022/11/04 00:40:13;;;;;;;6.72;2.80;;;;;;;13.22;53.01;99954.38;7389846;19;20520;-62
2022/11/04 00:42:39;;;;;;;8.75;3.28;;;;;;;13.29;52.64;99960.72;7391400;19;20462;-63
2022/11/04 00:45:05;;;;;;;8.50;3.42;;;;;;;13.20;52.70;99968.47;7393122;19;20068;-62
2022/11/04 00:47:31;;;;;;;7.30;3.20;;;;;;;13.15;52.81;99979.78;7391441;19;20022;-63
2022/11/04 00:49:57;;;;;;;7.07;3.20;;;;;;;13.11;53.02;99989.94;7392847;19;20331;-62
2022/11/04 00:52:23;;;;;;;8.77;3.60;;;;;;;13.09;52.81;99994.97;7391741;19;20002;-62
2022/11/04 00:54:48;;;;;;;8.15;3.70;;;;;;;13.15;52.74;99996.22;7394031;19;20006;-62
2022/11/04 00:57:14;;;;;;;9.85;3.13;;;;;;;13.15;52.47;99999.75;7392320;19;20005;-62
2022/11/04 00:59:40;;;;;;;9.05;3.50;;;;;;;13.17;52.41;99998.59;7391144;19;20003;-62
2022/11/04 01:02:07;;;;;;;9.13;3.85;;;;;;;13.10;52.87;99991.88;7392432;19;20003;-62
2022/11/04 01:04:34;;;;;;;7.30;3.58;;;;;;;12.94;53.19;99997.63;7392859;19;19999;-63
2022/11/04 01:07:00;;;;;;;8.20;3.50;;;;;;;13.07;52.95;99989.88;7388738;19;20130;-63
2022/11/04 01:09:26;;;;;;;8.45;3.22;;;;;;;13.16;52.53;100006.03;7391007;19;19999;-63
2022/11/04 01:11:51;;;;;;;10.73;3.92;;;;;;;13.10;52.77;100013.78;7388451;19;20013;-63
2022/11/04 01:14:18;;;;;;;8.63;3.88;;;;;;;13.17;52.41;100001.31;7391133;19;19994;-62
2022/11/04 01:16:44;;;;;;;8.38;3.95;;;;;;;12.95;53.10;100006.59;7391568;19;20090;-62
2022/11/04 01:19:10;;;;;;;8.10;3.90;;;;;;;12.99;53.03;100006.63;7390581;19;19994;-62
2022/11/04 01:21:36;;;;;;;7.13;3.30;;;;;;;13.10;52.68;100005.56;7388423;19;20006;-63
2022/11/04 01:24:02;;;;;;;9.07;3.90;;;;;;;13.15;52.49;99996.22;7391678;19;20059;-62
2022/11/04 01:26:28;;;;;;;10.95;3.78;;;;;;;13.10;52.63;99989.13;7391290;19;19995;-63
2022/11/04 01:28:55;;;;;;;9.82;3.35;;;;;;;13.04;52.62;99941.34;7392004;19;20324;-63
2022/11/04 01:31:23;;;;;;;10.25;3.50;;;;;;;13.15;52.44;99944.94;7390699;19;20001;-62
2022/11/04 01:33:50;;;;;;;8.10;4.18;;;;;;;13.13;52.55;99969.19;7391071;19;20410;-64
2022/11/04 01:36:17;;;;;;;11.50;3.88;;;;;;;13.00;52.98;99969.88;7390010;19;20002;-63
2022/11/04 01:38:42;;;;;;;9.27;4.00;;;;;;;12.85;53.43;99977.13;7391511;19;20007;-63
2022/11/04 01:41:18;;;;;;;8.77;3.97;;;;;;;13.04;52.85;99954.25;7391407;19;20002;-63
2022/11/04 01:43:54;;;;;;;11.18;4.07;;;;;;;13.05;52.57;99972.25;7394516;19;20098;-63
2022/11/04 01:46:36;;;;;;;11.00;4.50;;;;;;;13.09;52.86;99979.34;7389889;19;20006;-64
2022/11/04 01:49:26;;;;;;;9.35;3.95;;;;;;;13.07;52.75;99986.38;7391433;19;20003;-63
2022/11/04 01:52:01;;;;;;;9.48;3.92;;;;;;;12.87;53.20;99983.06;7397771;19;19998;-64
2022/11/04 01:54:28;;;;;;;8.15;4.05;;;;;;;12.99;53.04;99971.81;7405247;19;19998;-63
2022/11/04 01:56:54;;;;;;;10.20;4.60;;;;;;;13.05;52.72;99955.81;7404447;19;19998;-64
2022/11/04 01:59:27;;;;;;;9.63;4.28;;;;;;;13.14;52.53;99954.34;7403115;19;20344;-63
2022/11/04 02:01:53;;;;;;;8.85;4.65;;;;;;;13.11;52.31;99960.56;7403687;19;19999;-64
2022/11/04 02:04:25;;;;;;;11.20;4.75;;;;;;;13.07;52.88;99967.19;7405307;19;20165;-62
2022/11/04 02:07:10;;;;;;;9.68;4.50;;;;;;;13.13;52.55;99968.41;7399359;19;20017;-64
2022/11/04 02:09:55;;;;;;;8.32;4.63;;;;;;;12.95;52.69;99952.59;7399776;19;20398;-63
2022/11/04 02:12:50;;;;;;;12.32;4.80;;;;;;;12.92;53.05;99945.13;7401385;19;20014;-63
2022/11/04 02:15:54;;;;;;;9.95;4.82;;;;;;;12.84;53.35;99938.03;7399170;19;20343;-66
2022/11/04 02:18:47;;;;;;;9.68;4.80;;;;;;;12.64;54.05;99958.53;7398985;19;20443;-63
2022/11/04 02:21:46;;;;;;;9.15;4.82;;;;;;;12.76;53.56;99961.03;7396011;19;20013;-63
2022/11/04 02:24:55;;;;;;;10.00;4.95;;;;;;;12.85;53.30;99957.97;7399661;19;20383;-65
2022/11/04 02:27:42;;;;;;;8.77;4.65;;;;;;;12.99;52.79;99958.13;7397098;19;19998;-65
2022/11/04 02:30:34;;;;;;;11.48;5.00;;;;;;;13.04;52.58;99967.94;7398908;19;20006;-63
2022/11/04 02:33:35;;;;;;;10.55;4.82;;;;;;;12.92;53.21;99969.78;7399153;19;20010;-64
2022/11/04 02:36:34;;;;;;;7.60;4.30;;;;;;;12.92;53.27;99983.47;7397902;19;20015;-63
2022/11/04 02:39:36;;;;;;;9.98;4.38;;;;;;;12.99;52.50;99973.75;7399374;19;20816;-64
2022/11/04 02:42:26;;;;;;;8.27;4.47;;;;;;;12.91;52.87;99987.41;7397315;19;20350;-64
2022/11/04 02:45:23;;;;;;;8.30;4.07;;;;;;;12.88;52.72;99990.88;7397144;19;20011;-63
2022/11/04 02:48:13;;;;;;;8.07;3.92;;;;;;;12.67;52.93;99994.16;7397667;19;20366;-63
2022/11/04 02:51:09;;;;;;;6.97;3.60;;;;;;;12.72;52.24;100001.25;7396780;19;20009;-61
2022/11/04 02:53:56;;;;;;;6.35;3.20;;;;;;;12.71;52.11;99996.97;7398706;19;20009;-62
2022/11/04 02:56:46;;;;;;;5.68;2.80;;;;;;;12.52;52.28;100023.31;7397529;19;20542;-63
2022/11/04 02:59:52;;;;;;;4.50;2.30;;;;;;;12.51;51.11;100035.47;7397394;19;20014;-62
2022/11/04 03:02:51;;;;;;;4.78;2.10;;;;;;;12.65;50.57;100042.25;7394150;19;20406;-63
2022/11/04 03:05:39;;;;;;;4.28;1.70;;;;;;;12.70;50.40;100033.72;7388697;19;20010;-62
2022/11/04 03:08:30;;;;;;;4.20;1.52;;;;;;;12.63;50.02;100045.38;7390535;19;20066;-63
2022/11/04 03:11:17;;;;;;;3.22;1.70;;;;;;;12.70;49.88;100039.19;7389543;19;20127;-63
2022/11/04 03:14:05;;;;;;;4.55;1.40;;;;;;;12.68;49.64;100047.00;7390093;19;20436;-63
2022/11/04 03:16:53;;;;;;;2.30;1.40;;;;;;;12.51;49.78;100040.94;7390040;19;20014;-63
2022/11/04 03:19:55;;;;;;;2.55;1.20;;;;;;;12.54;49.25;100048.41;7391497;19;20482;-63
2022/11/04 03:22:45;;;;;;;3.45;1.40;;;;;;;12.48;49.34;100055.34;7386754;19;20489;-64
2022/11/04 03:25:40;;;;;;;5.72;1.23;;;;;;;12.55;49.29;100057.41;7389863;19;20025;-64
2022/11/04 03:28:36;;;;;;;2.20;1.10;;;;;;;12.57;49.37;100057.81;7389666;19;20031;-64
2022/11/04 03:31:53;;;;;;;3.88;1.27;;;;;;;12.44;49.43;100062.75;7388629;19;20425;-64
2022/11/04 03:34:37;;;;;;;3.60;1.50;;;;;;;12.48;49.21;100055.34;7389064;19;20010;-64
2022/11/04 03:37:21;;;;;;;3.50;1.75;;;;;;;12.38;49.55;100039.59;7389246;19;20035;-63
2022/11/04 03:40:06;;;;;;;4.93;1.55;;;;;;;12.34;49.86;100057.91;7388578;19;20034;-63
2022/11/04 03:43:24;;;;;;;4.55;1.48;;;;;;;12.29;49.63;100058.22;7390840;19;20350;-63
2022/11/04 03:46:09;;;;;;;3.03;1.50;;;;;;;12.36;49.71;100069.28;7388403;19;20382;-63
2022/11/04 03:48:54;;;;;;;3.20;1.60;;;;;;;12.44;49.55;100072.88;7389700;19;20019;-63
2022/11/04 03:51:38;;;;;;;4.80;1.80;;;;;;;12.55;49.18;100085.53;7387700;19;20493;-63
2022/11/04 03:54:22;;;;;;;5.25;1.90;;;;;;;12.53;49.46;100090.59;7389188;19;20102;-63
2022/11/04 03:57:44;;;;;;;3.92;2.10;;;;;;;12.23;50.33;100088.66;7390327;19;20014;-63
2022/11/04 04:00:34;;;;;;;4.95;2.20;;;;;;;12.37;49.82;100101.75;7389755;19;20010;-64
2022/11/04 04:03:32;;;;;;;4.65;2.13;;;;;;;12.34;50.12;100107.97;7388988;19;20028;-63
2022/11/04 04:06:22;;;;;;;7.57;2.45;;;;;;;12.46;49.64;100122.56;7388287;19;20006;-63
2022/11/04 04:09:25;;;;;;;5.63;2.60;;;;;;;12.39;50.02;100109.56;7389178;19;20034;-63
2022/11/04 04:12:35;;;;;;;5.68;2.60;;;;;;;12.29;50.34;100113.75;7388090;19;20374;-63
2022/11/04 04:15:27;;;;;;;5.47;2.80;;;;;;;12.33;49.99;100141.16;7391132;19;20009;-63
2022/11/04 04:18:16;;;;;;;6.03;2.47;;;;;;;12.30;50.25;100144.63;7389564;19;20018;-63
2022/11/04 04:21:04;;;;;;;6.55;2.90;;;;;;;12.29;50.00;100157.53;7388000;19;20017;-63
2022/11/04 04:30:11;;;;;;;4.95;2.70;;;;;;;12.37;50.21;100156.50;7388055;19;20041;-62
2022/11/04 04:32:58;;;;;;;5.97;2.78;;;;;;;12.31;50.29;100154.44;7387189;19;20484;-63
2022/11/04 04:35:48;;;;;;;6.45;2.90;;;;;;;12.52;49.82;100153.94;7388433;19;20008;-63
2022/11/04 04:47:45;;;;;;;8.05;3.33;;;;;;;12.31;50.11;100157.19;7386560;19;20009;-63
2022/11/04 04:50:39;;;;;;;7.70;3.20;;;;;;;12.21;50.41;100161.31;7386154;19;20005;-64
2022/11/04 04:53:23;;;;;;;7.05;3.97;;;;;;;12.28;50.24;100160.66;7387823;19;20002;-63
2022/11/04 04:56:07;;;;;;;7.43;3.17;;;;;;;12.38;50.17;100166.25;7385709;19;20006;-64
2022/11/04 04:58:51;;;;;;;6.82;3.38;;;;;;;12.21;50.32;100162.09;7387716;19;20524;-64
2022/11/04 05:01:35;;;;;;;9.38;3.58;;;;;;;12.26;50.43;100152.81;7386921;19;20493;-63
2022/11/04 05:04:19;;;;;;;8.85;4.10;;;;;;;12.37;49.98;100152.94;7386818;19;20006;-64
2022/11/04 05:07:03;;;;;;;10.00;3.80;;;;;;;12.42;49.57;100155.34;7385850;19;20860;-64
2022/11/04 05:09:47;;;;;;;8.55;3.95;;;;;;;12.03;50.59;100141.91;7387669;19;20335;-63
2022/11/04 05:15:43;;;;;;;7.88;3.92;;;;;;;12.07;50.34;100181.03;7384831;19;20090;-63
2022/11/04 05:18:27;;;;;;;7.43;3.95;;;;;;;12.26;49.94;100184.81;7387051;19;20037;-64
2022/11/04 05:21:24;;;;;;;7.55;3.70;;;;;;;12.35;49.89;100188.09;7386177;19;20017;-64
2022/11/04 05:24:09;;;;;;;8.68;4.07;;;;;;;12.27;50.04;100194.63;7385785;19;20030;-64
2022/11/04 05:26:53;;;;;;;8.10;4.18;;;;;;;12.31;49.93;100200.97;7382002;19;20506;-63
2022/11/04 05:29:37;;;;;;;7.72;4.30;;;;;;;12.25;49.83;100203.19;7387649;19;20009;-63
2022/11/04 05:32:21;;;;;;;6.70;3.88;;;;;;;12.27;49.92;100208.31;7385894;19;20009;-63
2022/11/04 05:35:06;;;;;;;6.93;3.92;;;;;;;12.45;49.25;100214.06;7387579;19;20029;-63
2022/11/04 05:37:50;;;;;;;8.00;4.40;;;;;;;12.45;49.26;100208.59;7383816;19;20014;-62
2022/11/04 05:40:34;;;;;;;6.75;3.97;;;;;;;12.44;49.17;100201.53;7386271;19;20014;-61
2022/11/04 05:43:18;;;;;;;10.15;4.45;;;;;;;12.43;49.14;100211.69;7386395;19;20010;-62
2022/11/04 05:48:36;;;;;;;8.20;4.03;;;;;;;12.38;49.36;100231.16;7368865;19;20011;-60
2022/11/04 05:51:23;;;;;;;7.35;4.03;;;;;;;12.45;49.05;100227.75;7388953;19;20014;-60
2022/11/04 05:54:08;;;;;;;8.02;3.88;;;;;;;12.28;49.38;100242.72;7386180;19;20035;-60
2022/11/04 05:56:52;;;;;;;6.75;3.97;;;;;;;12.36;49.28;100247.16;7384576;19;20014;-62
2022/11/04 05:59:36;;;;;;;6.38;4.10;;;;;;;12.32;49.51;100254.50;7385704;19;20010;-59
2022/11/04 06:02:20;;;;;;;6.15;3.35;;;;;;;12.46;48.95;100262.97;7385370;19;20358;-60
2022/11/04 06:05:05;;;;;;;7.10;4.20;;;;;;;12.50;48.91;100269.25;7386271;19;20347;-60
2022/11/04 06:07:49;;;;;;;6.45;3.72;;;;;;;12.41;49.09;100280.47;7383407;19;20538;-60
2022/11/04 06:10:33;;;;;;;8.00;3.40;;;;;;;12.52;48.72;100279.84;7385326;19;20022;-60
2022/11/04 06:13:17;;;;;;;6.25;3.90;;;;;;;12.49;49.03;100286.88;7385158;19;20632;-61
2022/11/04 06:16:01;;;;;;;7.45;3.83;;;;;;;12.62;48.29;100289.38;7385989;19;20090;-61
2022/11/04 06:18:44;;;;;;;8.25;3.40;;;;;;;12.69;48.39;100290.31;7385255;19;20013;-61
2022/11/04 06:21:31;;;;;;;8.20;4.10;;;;;;;12.69;48.29;100289.50;7384458;19;20006;-61
2022/11/04 06:24:15;;;;;;;8.38;3.95;;;;;;;12.72;48.37;100299.72;7385425;19;20005;-61
2022/11/04 06:26:59;;;;;;;7.50;3.35;;;;;;;12.82;48.11;100310.03;7383625;19;20008;-61
2022/11/04 06:29:43;;;;;;;8.35;4.18;;;;;;;12.86;47.94;100315.56;7384543;19;20010;-61
2022/11/04 06:32:33;;;;;;;5.65;3.38;;;;;;;12.84;48.16;100315.94;7385102;19;20002;-61
2022/11/04 06:35:17;;;;;;;7.20;3.95;;;;;;;12.88;47.96;100307.81;7384995;19;20088;-61
2022/11/04 06:38:01;;;;;;;6.90;3.85;;;;;;;12.76;48.52;100317.00;7382625;19;20105;-60
2022/11/04 06:40:45;;;;;;;5.50;3.15;;;;;;;12.67;48.51;100319.19;7392078;19;20005;-61
2022/11/04 06:43:29;;;;;;;5.13;3.17;;;;;;;12.56;48.22;100311.59;7392791;19;20018;-61
2022/11/04 06:46:35;;;;;;;6.55;3.28;;;;;;;12.63;47.97;100307.41;7390988;19;20009;-61
2022/11/04 06:49:22;;;;;;;7.05;2.50;;;;;;;12.59;47.96;100315.53;7392284;19;20009;-61
2022/11/04 06:52:06;;;;;;;3.67;2.17;;;;;;;12.53;48.09;100326.03;7392461;19;20006;-61
2022/11/04 06:54:50;;;;;;;5.32;2.63;;;;;;;12.43;48.04;100326.63;7391495;19;20024;-61
2022/11/04 06:57:34;;;;;;;4.72;2.13;;;;;;;12.60;47.79;100322.59;7388132;19;20067;-61
2022/11/04 07:00:18;;;;;;;4.72;2.08;;;;;;;12.54;47.79;100349.50;7389976;19;20006;-60
2022/11/04 07:03:02;;;;;;;5.07;2.20;;;;;;;12.29;48.25;100365.50;7389760;19;20018;-61
2022/11/04 07:05:45;;;;;;;2.28;1.50;;;;;;;12.34;48.10;100367.94;7391405;19;20018;-64
2022/11/04 07:08:29;;;;;;;3.03;1.90;;;;;;;12.43;47.85;100380.59;7388059;19;20805;-61
2022/11/04 07:11:13;;;;;;;2.80;1.60;;;;;;;12.46;47.56;100383.38;7391257;19;20098;-60
2022/11/04 07:13:58;;;;;;;4.05;1.50;;;;;;;12.48;47.40;100389.28;7391143;19;20018;-61
2022/11/04 07:16:42;;;;;;;4.38;1.70;;;;;;;12.48;47.66;100411.19;7389844;19;20009;-61
2022/11/04 07:19:26;;;;;;;7.45;2.10;;;;;;;12.51;47.61;100401.47;7390157;19;20084;-61
2022/11/04 07:22:10;;;;;;;4.15;2.00;;;;;;;12.58;47.64;100393.38;7391426;19;20026;-61
2022/11/04 07:24:54;;;;;;;5.82;2.03;;;;;;;12.68;47.39;100402.94;7390439;19;20037;-61
2022/11/04 07:27:38;;;;;;;7.03;2.30;;;;;;;12.76;47.46;100415.59;7387866;19;20022;-61
2022/11/04 07:30:22;;;;;;;8.07;2.67;;;;;;;12.77;47.07;100417.16;7389298;19;20001;-60
2022/11/04 07:33:07;;;;;;;5.10;2.55;;;;;;;12.59;47.59;100420.38;7389019;19;20009;-61
2022/11/04 07:35:52;;;;;;;6.10;2.58;;;;;;;12.44;48.15;100426.75;7389248;19;20098;-60
2022/11/04 07:38:36;;;;;;;7.38;3.00;;;;;;;12.48;48.19;100432.28;7390710;19;20005;-61
2022/11/04 07:41:20;;;;;;;7.20;2.90;;;;;;;12.54;48.04;100441.78;7390613;19;20010;-61
2022/11/04 07:44:04;;;;;;;7.20;3.22;;;;;;;12.57;48.20;100446.53;7390725;19;20501;-61
2022/11/04 07:46:48;;;;;;;7.97;3.10;;;;;;;12.63;47.91;100447.81;7386732;19;20042;-60
2022/11/04 07:49:32;;;;;;;5.07;2.80;;;;;;;12.68;47.82;100449.47;7389430;19;20072;-61
2022/11/04 07:52:16;;;;;;;7.05;3.45;;;;;;;12.62;48.30;100450.91;7390001;19;20019;-61
2022/11/04 07:55:00;;;;;;;7.43;3.53;;;;;;;12.41;48.51;100460.31;7389400;19;20493;-61
2022/11/04 07:57:45;;;;;;;6.85;3.38;;;;;;;12.42;48.75;100461.91;7386353;19;20341;-61
2022/11/04 08:00:29;;;;;;;6.43;3.38;;;;;;;12.34;49.05;100471.94;7389209;19;20027;-61
2022/11/04 08:03:14;;;;;;;7.00;3.22;;;;;;;12.46;48.75;100462.78;7388714;19;20112;-61
2022/11/04 08:05:59;;;;;;;5.85;3.08;;;;;;;12.46;48.94;100462.78;7389287;19;20354;-61
2022/11/04 08:08:43;;;;;;;6.95;3.47;;;;;;;12.39;49.09;100463.44;7389614;19;20014;-61
2022/11/04 08:11:27;;;;;;;5.40;3.13;;;;;;;12.39;49.15;100457.13;7389674;19;20009;-61
2022/11/04 08:14:11;;;;;;;5.55;3.20;;;;;;;12.51;49.22;100459.72;7389126;19;20129;-60
2022/11/04 08:16:55;;;;;;;5.85;3.00;;;;;;;12.55;49.14;100460.56;7387449;19;20017;-60
2022/11/04 08:19:40;;;;;;;4.95;2.65;;;;;;;12.53;49.07;100468.38;7388544;19;20010;-60
2022/11/04 08:22:24;;;;;;;5.43;2.80;;;;;;;12.47;49.23;100469.03;7396215;19;20371;-60
2022/11/04 08:24:49;;;;;;;5.90;2.92;;;;;;;12.43;49.42;100468.19;7395588;19;19998;-61
2022/11/04 08:27:15;;;;;;;4.43;2.45;;;;;;;12.44;49.38;100470.56;7392217;19;19998;-60
2022/11/04 08:29:41;;;;;;;4.13;2.67;;;;;;;12.52;49.13;100466.78;7392903;19;20001;-60
2022/11/04 08:32:06;;;;;;;6.75;3.00;;;;;;;12.67;48.84;100459.63;7393962;19;19991;-61
2022/11/04 08:34:33;;;;;;;7.90;3.75;;;;;;;12.67;48.60;100461.56;7392106;19;19994;-62
2022/11/04 08:36:59;;;;;;;7.88;4.20;;;;;;;12.60;49.15;100473.19;7392001;19;20471;-60
2022/11/04 08:39:25;;;;;;;8.15;2.60;;;;;;;12.63;48.92;100477.16;7391787;19;20081;-61
2022/11/04 08:41:52;;;;;;;4.90;2.10;;;;;;;12.70;48.68;100477.28;7392893;19;20044;-60
2022/11/04 08:44:19;;;;;;;3.53;2.00;;;;;;;12.83;48.37;100491.59;7392751;19;20002;-60
2022/11/04 08:46:46;;;;;;;4.05;1.95;;;;;;;12.85;48.18;100490.06;7389296;19;20500;-60
2022/11/04 08:49:14;;;;;;;4.95;2.25;;;;;;;12.83;48.18;100508.81;7390993;19;20002;-60
2022/11/04 08:51:43;;;;;;;4.32;2.17;;;;;;;12.73;48.36;100503.94;7391470;19;19990;-60
2022/11/04 08:54:09;;;;;;;3.88;1.90;;;;;;;12.67;48.84;100503.44;7392113;19;20474;-60
2022/11/04 08:56:37;;;;;;;2.90;1.65;;;;;;;12.74;48.68;100510.97;7389302;19;20394;-60
2022/11/04 08:59:03;;;;;;;3.25;1.90;;;;;;;12.84;48.54;100510.41;7391064;19;20009;-60
2022/11/04 09:01:34;;;;;;;2.80;1.60;;;;;;;12.92;48.41;100511.34;7388212;19;20380;-60
2022/11/04 09:04:00;;;;;;;3.03;1.40;;;;;;;13.01;48.20;100513.84;7386082;19;21090;-59
2022/11/04 09:06:33;;;;;;;5.07;1.83;;;;;;;13.10;48.02;100517.13;7391859;19;20011;-59
2022/11/04 09:09:03;;;;;;;4.60;1.35;;;;;;;13.18;47.75;100518.84;7392190;19;20483;-59
2022/11/04 09:11:36;;;;;;;2.88;1.38;;;;;;;13.08;47.96;100516.72;7393681;19;20096;-59
2022/11/04 09:14:03;;;;;;;2.47;1.40;;;;;;;13.10;48.20;100523.41;7389748;19;20005;-59
2022/11/04 09:16:30;;;;;;;2.42;1.10;;;;;;;12.88;48.23;100530.44;7391729;19;20002;-58
2022/11/04 09:18:56;;;;;;;4.22;1.33;;;;;;;13.05;48.04;100528.41;7393764;19;20010;-58
2022/11/04 09:21:40;;;;;;;3.10;1.15;;;;;;;13.17;47.45;100530.94;7384918;19;20006;-60
2022/11/04 09:24:24;;;;;;;2.05;1.15;;;;;;;13.12;47.41;100540.25;7381365;19;20030;-60
2022/11/04 09:27:08;;;;;;;3.90;1.38;;;;;;;13.19;47.31;100547.81;7381222;19;20469;-60
2022/11/04 09:29:52;;;;;;;4.22;1.15;;;;;;;13.22;47.30;100552.56;7384070;19;20019;-60
2022/11/04 09:32:36;;;;;;;3.72;1.40;;;;;;;13.16;47.63;100556.78;7386904;19;20004;-60
2022/11/04 09:35:20;;;;;;;2.85;1.30;;;;;;;13.12;47.71;100558.66;7385082;19;20002;-60
2022/11/04 09:38:11;;;;;;;4.32;1.23;;;;;;;13.32;47.09;100556.66;7386041;19;20001;-60
2022/11/04 09:40:55;;;;;;;3.88;1.65;;;;;;;13.25;47.19;100551.84;7386478;19;20028;-60
2022/11/04 09:43:45;;;;;;;4.30;1.73;;;;;;;12.94;47.76;100561.88;7386741;19;20363;-62
2022/11/04 09:46:32;;;;;;;3.95;1.40;;;;;;;13.13;47.48;100565.72;7393144;19;20048;-61
2022/11/04 09:49:02;;;;;;;3.03;1.50;;;;;;;13.20;47.18;100567.81;7396120;19;20023;-62
2022/11/04 09:51:47;;;;;;;2.78;1.48;;;;;;;13.23;46.92;100554.16;7392061;19;20014;-62
2022/11/04 09:54:43;;;;;;;4.97;1.55;;;;;;;13.13;47.29;100560.25;7390720;19;19995;-62
2022/11/04 09:57:16;;;;;;;5.78;1.60;;;;;;;13.23;47.00;100556.91;7387801;19;19999;-62
2022/11/04 09:59:42;;;;;;;4.50;1.58;;;;;;;13.30;46.93;100562.50;7389945;19;20013;-62
2022/11/04 10:02:23;;;;;;;3.50;1.50;;;;;;;13.45;46.37;100560.78;7390102;19;20405;-62
2022/11/04 10:05:08;;;;;;;4.68;1.70;;;;;;;13.36;46.69;100564.94;7388210;19;20082;-62
2022/11/04 10:08:04;;;;;;;3.70;1.75;;;;;;;13.32;46.40;100568.41;7388800;19;20007;-62
2022/11/04 10:10:57;;;;;;;4.60;1.92;;;;;;;13.23;46.78;100569.81;7391172;19;20074;-62
2022/11/04 10:13:46;;;;;;;5.30;2.05;;;;;;;13.26;46.71;100574.53;7396107;19;20011;-63
2022/11/04 10:16:30;;;;;;;3.67;2.00;;;;;;;13.20;46.64;100592.47;7397873;19;20010;-62
2022/11/04 10:19:11;;;;;;;3.28;1.80;;;;;;;13.40;46.33;100584.97;7397776;19;20077;-62
2022/11/04 10:22:06;;;;;;;5.53;1.83;;;;;;;13.50;46.23;100579.66;7398129;19;20025;-62
2022/11/04 10:24:58;;;;;;;6.07;1.88;;;;;;;13.48;46.16;100575.72;7396110;19;20013;-62
2022/11/04 10:27:32;;;;;;;4.82;1.50;;;;;;;13.77;45.87;100576.16;7393491;19;20002;-61
2022/11/04 10:30:18;;;;;;;2.67;1.60;;;;;;;13.85;45.61;100581.41;7397925;19;20086;-61
2022/11/04 10:32:59;;;;;;;4.70;1.60;;;;;;;13.74;45.52;100576.91;7398586;19;20010;-61
2022/11/04 10:35:38;;;;;;;4.70;1.95;;;;;;;13.74;45.66;100579.66;7395013;19;20021;-61
2022/11/04 10:38:16;;;;;;;3.55;1.70;;;;;;;13.66;45.65;100581.47;7395401;19;20074;-61
2022/11/04 10:40:49;;;;;;;3.88;1.67;;;;;;;13.70;45.65;100579.59;7396582;19;20006;-61
2022/11/04 10:43:22;;;;;;;4.13;1.60;;;;;;;13.80;45.40;100575.44;7397696;19;20003;-61
2022/11/04 10:46:08;;;;;;;4.40;1.42;;;;;;;13.77;45.42;100593.41;7393738;19;20420;-61
2022/11/04 10:48:42;;;;;;;5.95;1.60;;;;;;;13.49;45.54;100588.25;7397214;19;20014;-62
2022/11/04 10:51:08;;;;;;;3.58;1.08;;;;;;;13.54;45.69;100593.44;7396496;19;20400;-61
2022/11/04 10:53:34;;;;;;;5.35;1.40;;;;;;;13.54;45.69;100601.66;7370171;19;20013;-61
2022/11/04 10:56:21;;;;;;;11.13;1.95;;;;;;;13.57;45.19;100600.94;7395761;19;19999;-62
2022/11/04 10:58:47;;;;;;;5.13;1.40;;;;;;;13.58;45.27;100610.75;7397607;19;20002;-61
2022/11/04 11:01:34;;;;;;;4.43;1.48;;;;;;;13.51;45.37;100613.38;7396037;19;20013;-61
2022/11/04 11:04:04;;;;;;;2.78;1.30;;;;;;;13.76;44.88;100621.19;7395385;19;20040;-61
2022/11/04 11:06:33;;;;;;;3.38;1.10;;;;;;;13.78;44.91;100616.16;7392526;19;20462;-61
2022/11/04 11:09:11;;;;;;;9.00;1.70;;;;;;;13.65;45.37;100623.78;7397004;19;20006;-61
2022/11/04 11:11:46;;;;;;;5.47;1.30;;;;;;;13.41;45.56;100627.66;7395914;19;20070;-61
2022/11/04 11:14:27;;;;;;;5.10;1.30;;;;;;;13.46;45.09;100619.13;7393901;19;20023;-61
2022/11/04 11:16:53;;;;;;;6.68;1.73;;;;;;;13.67;44.79;100629.69;7394982;19;20070;-61
2022/11/04 11:19:23;;;;;;;3.90;1.48;;;;;;;13.58;45.13;100623.69;7394070;19;20503;-61
2022/11/04 11:21:52;;;;;;;5.80;2.45;;;;;;;13.63;45.08;100632.38;7396787;19;20003;-61
2022/11/04 11:24:24;;;;;;;6.13;1.90;;;;;;;13.49;44.92;100637.59;7393317;19;20002;-61
2022/11/04 11:27:00;;;;;;;5.13;1.80;;;;;;;13.54;44.63;100640.03;7394558;19;19994;-61
2022/11/04 11:29:29;;;;;;;5.07;1.63;;;;;;;13.63;44.67;100642.56;7393850;19;20006;-61
2022/11/04 11:31:56;;;;;;;4.80;1.80;;;;;;;13.50;44.88;100652.91;7395351;19;20531;-61
2022/11/04 11:34:31;;;;;;;6.30;1.85;;;;;;;13.77;44.45;100644.75;7395527;19;20002;-61
2022/11/04 11:37:01;;;;;;;6.28;1.75;;;;;;;13.94;44.08;100640.72;7394909;19;20048;-61
2022/11/04 11:39:29;;;;;;;8.18;2.17;;;;;;;14.00;44.01;100640.03;7395130;19;20007;-61
2022/11/04 11:42:05;;;;;;;7.18;2.13;;;;;;;14.01;43.98;100641.63;7393547;19;20026;-61
2022/11/04 11:44:37;;;;;;;6.72;2.30;;;;;;;13.85;44.57;100649.22;7394374;19;20005;-61
2022/11/04 11:47:17;;;;;;;7.45;2.85;;;;;;;13.86;44.83;100664.50;7391712;19;19994;-61
2022/11/04 11:49:44;;;;;;;5.70;2.33;;;;;;;13.75;45.06;100658.03;7394954;19;19995;-61
2022/11/04 11:52:26;;;;;;;7.97;2.53;;;;;;;13.88;44.28;100668.47;7394842;19;20460;-61
2022/11/04 11:55:03;;;;;;;5.38;2.40;;;;;;;13.85;44.66;100660.19;7391958;19;20621;-62
2022/11/04 11:57:43;;;;;;;7.80;2.78;;;;;;;13.83;44.66;100668.78;7395012;19;20002;-61
2022/11/04 12:00:16;;;;;;;9.18;3.00;;;;;;;13.79;44.65;100662.41;7394587;19;20083;-61
2022/11/04 12:03:06;;;;;;;8.75;2.72;;;;;;;13.70;44.82;100686.56;7395479;19;20006;-61
2022/11/04 12:05:44;;;;;;;7.88;3.15;;;;;;;13.65;44.99;100673.94;7390067;19;20007;-61
2022/11/04 12:08:42;;;;;;;8.43;3.28;;;;;;;13.57;44.98;100683.19;7392459;19;20022;-61
2022/11/04 12:11:19;;;;;;;8.95;3.47;;;;;;;13.55;45.44;100691.00;7392404;19;19995;-61
2022/11/04 12:13:51;;;;;;;8.00;3.30;;;;;;;13.56;45.27;100681.63;7395357;19;20002;-61
2022/11/04 12:16:32;;;;;;;7.45;3.50;;;;;;;13.44;45.59;100687.25;7391584;19;20510;-61
2022/11/04 12:18:57;;;;;;;13.38;4.22;;;;;;;13.23;45.93;100693.94;7394934;19;20072;-61
2022/11/04 12:21:32;;;;;;;10.48;3.80;;;;;;;13.18;46.03;100691.50;7390341;19;19999;-61
2022/11/04 12:24:22;;;;;;;9.43;3.28;;;;;;;13.35;45.26;100687.50;7391450;19;20002;-61
2022/11/04 12:27:12;;;;;;;8.25;3.10;;;;;;;13.31;45.17;100703.88;7392777;19;19994;-61
2022/11/04 12:29:53;;;;;;;6.57;2.67;;;;;;;13.47;44.75;100697.50;7392182;19;20074;-61
2022/11/04 12:32:34;;;;;;;5.82;2.70;;;;;;;13.62;44.70;100684.84;7393576;19;20454;-61
2022/11/04 12:35:15;;;;;;;5.82;2.45;;;;;;;13.66;44.20;100682.94;7391288;19;20474;-61
2022/11/04 12:38:20;;;;;;;8.98;2.65;;;;;;;13.71;43.98;100685.41;7393010;19;19994;-62
2022/11/04 12:40:55;;;;;;;4.43;1.85;;;;;;;13.82;43.84;100682.84;7393020;19;20307;-62
2022/11/04 12:43:26;;;;;;;7.35;2.10;;;;;;;13.80;43.96;100682.41;7391887;19;20023;-61
2022/11/04 12:46:24;;;;;;;7.53;2.50;;;;;;;13.60;43.25;100687.94;7393274;19;19994;-61
2022/11/04 12:48:50;;;;;;;6.22;2.33;;;;;;;13.63;43.80;100686.44;7392987;19;19995;-61
2022/11/04 12:51:41;;;;;;;8.82;2.90;;;;;;;13.73;43.49;100690.50;7390720;19;20380;-61
2022/11/04 12:54:38;;;;;;;6.95;2.55;;;;;;;13.78;43.59;100682.78;7390629;19;20347;-61
2022/11/04 12:57:28;;;;;;;6.93;2.50;;;;;;;13.70;43.69;100676.38;7391666;19;20018;-61
2022/11/04 13:00:26;;;;;;;7.93;2.58;;;;;;;13.62;43.72;100680.16;7392626;19;19995;-61
2022/11/04 13:03:09;;;;;;;8.15;2.85;;;;;;;13.70;43.67;100686.56;7391098;19;19994;-63
2022/11/04 13:05:38;;;;;;;7.67;2.83;;;;;;;13.63;44.21;100670.78;7389471;19;20070;-62
2022/11/04 13:08:18;;;;;;;7.72;2.55;;;;;;;13.74;43.82;100681.13;7387833;19;19998;-62